EmailTwitter


Observations de surface / France / LFMK (07635)

Régions: Québec | Canada | États-Unis | Europe | France | UK | Ailleurs
Station
Affichage
Infos & localisation pour LFMK (07635) | Aide pour décoder les METARs

Observations prises le 2018-12-15 à 05H00 UTC à CARCASSONNE/SALV, FR (LFMK)

Etat du ciel: couvert.

Température: 5.0 Celsius

Point de rosée: 3.0 Celsius

Humidité relative: 87%

Facteur vent: 3.

Vents: Ouest à 9 km/h ou 5 noeuds.

Pression au niveau moyen de la mer: 102.20 kilopascals.

Visibilité horizontale: 6.21 milles terrestres ou 9.94 kilomètres.

Hauteur du plafond: 1585 mètres ( 5200 pieds ).

Observation METAR:

LFMK 150500Z AUTO 26005KT 9999 OVC052 05/03 Q1022 NOSIG=